sensor_id;sensor_type;location;lat;lon;timestamp;pressure;altitude;pressure_sealevel;temperature;humidity
70781;BME280;72716;48.814;2.126;2024-03-06T12:14:41;100672.22;;;8.48;100.00
70781;BME280;72716;48.814;2.126;2024-03-06T12:17:11;100671.97;;;9.03;100.00
70781;BME280;72716;48.814;2.126;2024-03-06T12:19:38;100672.34;;;9.46;100.00
70781;BME280;72716;48.814;2.126;2024-03-06T12:22:03;100666.69;;;10.16;100.00
70781;BME280;72716;48.814;2.126;2024-03-06T12:24:29;100671.38;;;11.21;100.00
70781;BME280;72716;48.814;2.126;2024-03-06T12:27:02;100671.34;;;11.86;100.00
70781;BME280;72716;48.814;2.126;2024-03-06T12:29:29;100675.72;;;11.78;100.00
70781;BME280;72716;48.814;2.126;2024-03-06T12:31:58;100668.56;;;12.44;100.00
70781;BME280;72716;48.814;2.126;2024-03-06T12:34:24;100671.66;;;13.14;100.00
70781;BME280;72716;48.814;2.126;2024-03-06T12:36:49;100664.56;;;13.25;100.00
70781;BME280;72716;48.814;2.126;2024-03-06T12:39:17;100662.06;;;14.08;100.00
70781;BME280;72716;48.814;2.126;2024-03-06T12:41:51;100669.53;;;13.63;100.00
70781;BME280;72716;48.814;2.126;2024-03-06T12:44:16;100674.00;;;11.43;100.00
70781;BME280;72716;48.814;2.126;2024-03-06T12:46:42;100674.88;;;11.59;100.00
70781;BME280;72716;48.814;2.126;2024-03-06T12:49:07;100671.31;;;12.16;100.00
70781;BME280;72716;48.814;2.126;2024-03-06T12:51:33;100662.66;;;11.29;100.00
70781;BME280;72716;48.814;2.126;2024-03-06T12:53:58;100667.84;;;10.83;100.00
70781;BME280;72716;48.814;2.126;2024-03-06T12:56:24;100662.59;;;10.86;100.00
70781;BME280;72716;48.814;2.126;2024-03-06T12:58:51;100666.97;;;10.98;100.00
70781;BME280;72716;48.814;2.126;2024-03-06T13:01:16;100658.75;;;9.96;100.00
70781;BME280;72716;48.814;2.126;2024-03-06T13:03:41;100656.94;;;9.86;100.00
70781;BME280;72716;48.814;2.126;2024-03-06T13:06:07;100666.66;;;10.07;100.00
70781;BME280;72716;48.814;2.126;2024-03-06T13:08:33;100666.72;;;10.18;100.00
70781;BME280;72716;48.814;2.126;2024-03-06T13:10:58;100662.25;;;10.00;100.00
70781;BME280;72716;48.814;2.126;2024-03-06T13:13:24;100666.72;;;10.19;100.00
70781;BME280;72716;48.814;2.126;2024-03-06T13:15:50;100668.53;;;10.31;100.00
70781;BME280;72716;48.814;2.126;2024-03-06T13:18:16;100668.44;;;10.17;100.00
70781;BME280;72716;48.814;2.126;2024-03-06T13:20:42;100666.25;;;9.47;100.00
70781;BME280;72716;48.814;2.126;2024-03-06T13:23:07;100671.09;;;9.01;100.00
70781;BME280;72716;48.814;2.126;2024-03-06T13:25:33;100672.88;;;9.08;100.00
70781;BME280;72716;48.814;2.126;2024-03-06T13:27:58;100669.75;;;9.46;100.00
70781;BME280;72716;48.814;2.126;2024-03-06T13:30:24;100666.22;;;9.43;100.00
70781;BME280;72716;48.814;2.126;2024-03-06T13:32:50;100668.06;;;9.58;100.00
70781;BME280;72716;48.814;2.126;2024-03-06T13:35:15;100666.34;;;9.60;100.00
70781;BME280;72716;48.814;2.126;2024-03-06T13:37:44;100668.16;;;9.70;100.00
70781;BME280;72716;48.814;2.126;2024-03-06T13:40:10;100669.91;;;9.70;100.00
70781;BME280;72716;48.814;2.126;2024-03-06T13:42:38;100668.16;;;9.70;100.00
70781;BME280;72716;48.814;2.126;2024-03-06T13:45:04;100664.63;;;9.62;100.00
70781;BME280;72716;48.814;2.126;2024-03-06T13:47:30;100665.53;;;9.64;100.00
70781;BME280;72716;48.814;2.126;2024-03-06T13:49:56;100664.66;;;9.68;100.00
70781;BME280;72716;48.814;2.126;2024-03-06T13:52:21;100662.97;;;9.74;100.00
70781;BME280;72716;48.814;2.126;2024-03-06T13:54:48;100665.53;;;9.69;100.00
70781;BME280;72716;48.814;2.126;2024-03-06T13:57:14;100664.91;;;10.06;100.00
70781;BME280;72716;48.814;2.126;2024-03-06T13:59:39;100669.16;;;9.87;100.00
70781;BME280;72716;48.814;2.126;2024-03-06T14:02:06;100663.22;;;10.14;100.00
70781;BME280;72716;48.814;2.126;2024-03-06T14:04:32;100663.00;;;9.78;100.00
70781;BME280;72716;48.814;2.126;2024-03-06T14:06:57;100670.69;;;9.59;100.00
70781;BME280;72716;48.814;2.126;2024-03-06T14:09:24;100660.53;;;10.05;100.00
70781;BME280;72716;48.814;2.126;2024-03-06T14:11:50;100670.25;;;10.28;100.00
70781;BME280;72716;48.814;2.126;2024-03-06T14:14:16;100666.81;;;10.44;100.00
70781;BME280;72716;48.814;2.126;2024-03-06T14:16:43;100666.81;;;10.38;100.00
70781;BME280;72716;48.814;2.126;2024-03-06T14:19:08;100670.31;;;10.43;100.00
70781;BME280;72716;48.814;2.126;2024-03-06T14:21:34;100666.00;;;10.58;100.00
70781;BME280;72716;48.814;2.126;2024-03-06T14:24:01;100671.31;;;10.74;100.00
70781;BME280;72716;48.814;2.126;2024-03-06T14:26:31;100665.28;;;11.09;100.00
70781;BME280;72716;48.814;2.126;2024-03-06T14:28:56;100665.25;;;11.06;100.00
70781;BME280;72716;48.814;2.126;2024-03-06T14:31:22;100675.75;;;11.44;100.00
70781;BME280;72716;48.814;2.126;2024-03-06T14:33:48;100667.81;;;12.11;100.00
70781;BME280;72716;48.814;2.126;2024-03-06T14:36:14;100676.41;;;12.46;100.00
70781;BME280;72716;48.814;2.126;2024-03-06T14:38:39;100667.63;;;12.56;100.00
70781;BME280;72716;48.814;2.126;2024-03-06T14:41:05;100672.91;;;12.50;100.00
70781;BME280;72716;48.814;2.126;2024-03-06T14:43:32;100675.50;;;12.56;100.00
70781;BME280;72716;48.814;2.126;2024-03-06T14:46:00;100671.28;;;12.14;100.00
70781;BME280;72716;48.814;2.126;2024-03-06T14:48:25;100676.56;;;11.91;100.00
70781;BME280;72716;48.814;2.126;2024-03-06T14:50:50;100679.22;;;11.83;100.00
70781;BME280;72716;48.814;2.126;2024-03-06T14:53:16;100681.84;;;11.71;100.00
70781;BME280;72716;48.814;2.126;2024-03-06T14:55:42;100677.50;;;11.26;100.00
70781;BME280;72716;48.814;2.126;2024-03-06T14:58:07;100682.72;;;11.31;100.00
70781;BME280;72716;48.814;2.126;2024-03-06T15:00:33;100677.50;;;11.29;100.00
70781;BME280;72716;48.814;2.126;2024-03-06T15:02:58;100682.75;;;11.26;100.00
70781;BME280;72716;48.814;2.126;2024-03-06T15:05:25;100676.59;;;11.02;100.00
70781;BME280;72716;48.814;2.126;2024-03-06T15:07:51;100674.81;;;10.84;100.00
70781;BME280;72716;48.814;2.126;2024-03-06T15:10:16;100675.72;;;10.93;100.00
70781;BME280;72716;48.814;2.126;2024-03-06T15:12:42;100673.03;;;10.73;100.00
70781;BME280;72716;48.814;2.126;2024-03-06T15:15:08;100678.16;;;10.43;100.00
70781;BME280;72716;48.814;2.126;2024-03-06T15:17:34;100672.97;;;10.48;100.00
70781;BME280;72716;48.814;2.126;2024-03-06T15:20:04;100669.38;;;10.33;100.00
70781;BME280;72716;48.814;2.126;2024-03-06T15:22:30;100671.00;;;10.11;100.00
70781;BME280;72716;48.814;2.126;2024-03-06T15:24:55;100664.72;;;9.75;100.00
70781;BME280;72716;48.814;2.126;2024-03-06T15:27:20;100666.22;;;9.44;100.00
70781;BME280;72716;48.814;2.126;2024-03-06T15:29:46;100666.25;;;9.47;100.00
70781;BME280;72716;48.814;2.126;2024-03-06T15:32:12;100673.25;;;9.49;100.00
70781;BME280;72716;48.814;2.126;2024-03-06T15:34:37;100666.25;;;9.47;100.00
70781;BME280;72716;48.814;2.126;2024-03-06T15:37:04;100674.16;;;9.54;100.00
70781;BME280;72716;48.814;2.126;2024-03-06T15:39:30;100672.38;;;9.51;100.00
70781;BME280;72716;48.814;2.126;2024-03-06T15:41:55;100675.06;;;9.57;100.00
70781;BME280;72716;48.814;2.126;2024-03-06T15:44:22;100676.69;;;9.44;100.00
70781;BME280;72716;48.814;2.126;2024-03-06T15:46:47;100674.03;;;9.37;100.00
70781;BME280;72716;48.814;2.126;2024-03-06T15:49:20;100677.41;;;9.28;100.00
70781;BME280;72716;48.814;2.126;2024-03-06T15:51:46;100678.19;;;9.17;100.00
70781;BME280;72716;48.814;2.126;2024-03-06T15:54:11;100678.25;;;9.25;100.00
70781;BME280;72716;48.814;2.126;2024-03-06T15:56:37;100681.72;;;9.22;100.00
70781;BME280;72716;48.814;2.126;2024-03-06T15:59:02;100680.00;;;9.21;100.00
70781;BME280;72716;48.814;2.126;2024-03-06T16:01:28;100683.38;;;9.11;100.00
70781;BME280;72716;48.814;2.126;2024-03-06T16:03:53;100678.97;;;9.05;100.00
70781;BME280;72716;48.814;2.126;2024-03-06T16:06:18;100682.47;;;9.07;100.00
70781;BME280;72716;48.814;2.126;2024-03-06T16:08:44;100682.44;;;9.06;100.00
70781;BME280;72716;48.814;2.126;2024-03-06T16:11:09;100683.38;;;9.11;100.00
70781;BME280;72716;48.814;2.126;2024-03-06T16:13:34;100682.47;;;9.09;100.00
70781;BME280;72716;48.814;2.126;2024-03-06T16:16:00;100683.28;;;9.05;100.00
70781;BME280;72716;48.814;2.126;2024-03-06T16:18:25;100680.66;;;9.03;100.00
70781;BME280;72716;48.814;2.126;2024-03-06T16:20:50;100678.00;;;8.95;100.00
70781;BME280;72716;48.814;2.126;2024-03-06T16:23:16;100678.03;;;9.02;100.00
70781;BME280;72716;48.814;2.126;2024-03-06T16:25:41;100677.25;;;9.09;100.00
70781;BME280;72716;48.814;2.126;2024-03-06T16:28:07;100675.44;;;9.03;100.00
70781;BME280;72716;48.814;2.126;2024-03-06T16:30:33;100680.66;;;9.03;100.00
70781;BME280;72716;48.814;2.126;2024-03-06T16:32:58;100677.19;;;9.03;100.00
70781;BME280;72716;48.814;2.126;2024-03-06T16:35:24;100686.81;;;9.07;100.00
70781;BME280;72716;48.814;2.126;2024-03-06T16:37:49;100685.06;;;9.06;100.00
70781;BME280;72716;48.814;2.126;2024-03-06T16:40:16;100690.19;;;8.96;100.00
70781;BME280;72716;48.814;2.126;2024-03-06T16:42:42;100689.28;;;8.94;100.00
70781;BME280;72716;48.814;2.126;2024-03-06T16:45:08;100691.84;;;8.91;100.00
70781;BME280;72716;48.814;2.126;2024-03-06T16:47:36;100692.66;;;8.85;100.00
70781;BME280;72716;48.814;2.126;2024-03-06T16:50:01;100697.97;;;8.92;100.00
70781;BME280;72716;48.814;2.126;2024-03-06T16:52:27;100689.25;;;8.93;100.00
70781;BME280;72716;48.814;2.126;2024-03-06T16:54:53;100692.72;;;8.90;100.00
70781;BME280;72716;48.814;2.126;2024-03-06T16:57:18;100691.84;;;8.90;100.00
70781;BME280;72716;48.814;2.126;2024-03-06T16:59:44;100691.69;;;8.76;100.00
70781;BME280;72716;48.814;2.126;2024-03-06T17:02:09;100691.78;;;8.82;100.00
70781;BME280;72716;48.814;2.126;2024-03-06T17:04:35;100699.63;;;8.85;100.00
70781;BME280;72716;48.814;2.126;2024-03-06T17:07:00;100698.75;;;8.86;100.00
70781;BME280;72716;48.814;2.126;2024-03-06T17:09:28;100689.22;;;8.86;100.00
70781;BME280;72716;48.814;2.126;2024-03-06T17:11:53;100701.38;;;8.86;100.00
70781;BME280;72716;48.814;2.126;2024-03-06T17:14:19;100695.22;;;8.81;100.00
70781;BME280;72716;48.814;2.126;2024-03-06T17:16:44;100700.44;;;8.81;100.00
70781;BME280;72716;48.814;2.126;2024-03-06T17:19:10;100693.50;;;8.80;100.00
70781;BME280;72716;48.814;2.126;2024-03-06T17:21:35;100699.50;;;8.74;100.00
70781;BME280;72716;48.814;2.126;2024-03-06T17:24:03;100698.56;;;8.69;100.00
70781;BME280;72716;48.814;2.126;2024-03-06T17:26:30;100700.28;;;8.65;100.00
70781;BME280;72716;48.814;2.126;2024-03-06T17:28:55;100695.84;;;8.58;100.00
70781;BME280;72716;48.814;2.126;2024-03-06T17:31:21;100695.75;;;8.53;100.00
70781;BME280;72716;48.814;2.126;2024-03-06T17:33:46;100697.44;;;8.48;100.00
70781;BME280;72716;48.814;2.126;2024-03-06T17:36:12;100703.53;;;8.48;100.00
70781;BME280;72716;48.814;2.126;2024-03-06T17:38:37;100700.91;;;8.47;100.00
70781;BME280;72716;48.814;2.126;2024-03-06T17:41:06;100708.69;;;8.42;100.00
70781;BME280;72716;48.814;2.126;2024-03-06T17:43:32;100710.28;;;8.34;100.00
